sensor_id;sensor_type;location;lat;lon;timestamp;temperature;humidity
11597;DHT22;5854;48.072;16.286;2023-11-21T00:01:28;6.10;86.30
11597;DHT22;5854;48.072;16.286;2023-11-21T00:03:56;6.00;84.40
11597;DHT22;5854;48.072;16.286;2023-11-21T00:06:23;6.00;87.00
11597;DHT22;5854;48.072;16.286;2023-11-21T00:08:50;6.00;85.40
11597;DHT22;5854;48.072;16.286;2023-11-21T00:11:17;6.00;85.90
11597;DHT22;5854;48.072;16.286;2023-11-21T00:13:44;6.00;86.90
11597;DHT22;5854;48.072;16.286;2023-11-21T00:16:12;6.00;86.40
11597;DHT22;5854;48.072;16.286;2023-11-21T00:18:39;6.10;87.70
11597;DHT22;5854;48.072;16.286;2023-11-21T00:21:08;6.20;88.70
11597;DHT22;5854;48.072;16.286;2023-11-21T00:23:38;6.40;85.90
11597;DHT22;5854;48.072;16.286;2023-11-21T00:26:05;6.10;85.00
11597;DHT22;5854;48.072;16.286;2023-11-21T00:28:32;5.90;88.40
11597;DHT22;5854;48.072;16.286;2023-11-21T00:31:00;6.10;87.20
11597;DHT22;5854;48.072;16.286;2023-11-21T00:33:28;6.00;86.20
11597;DHT22;5854;48.072;16.286;2023-11-21T00:35:55;5.70;87.70
11597;DHT22;5854;48.072;16.286;2023-11-21T00:38:22;5.80;89.80
11597;DHT22;5854;48.072;16.286;2023-11-21T00:40:49;5.90;90.60
11597;DHT22;5854;48.072;16.286;2023-11-21T00:43:18;5.80;88.10
11597;DHT22;5854;48.072;16.286;2023-11-21T00:45:45;5.80;90.20
11597;DHT22;5854;48.072;16.286;2023-11-21T00:48:14;5.90;89.50
11597;DHT22;5854;48.072;16.286;2023-11-21T00:50:43;5.90;89.90
11597;DHT22;5854;48.072;16.286;2023-11-21T00:53:10;6.00;88.00
11597;DHT22;5854;48.072;16.286;2023-11-21T00:55:37;6.00;89.00
11597;DHT22;5854;48.072;16.286;2023-11-21T00:58:05;5.90;86.70
11597;DHT22;5854;48.072;16.286;2023-11-21T01:00:33;6.20;89.00
11597;DHT22;5854;48.072;16.286;2023-11-21T01:03:00;6.20;86.90
11597;DHT22;5854;48.072;16.286;2023-11-21T01:05:27;6.20;86.10
11597;DHT22;5854;48.072;16.286;2023-11-21T01:07:56;6.30;86.40
11597;DHT22;5854;48.072;16.286;2023-11-21T01:10:23;6.40;85.20
11597;DHT22;5854;48.072;16.286;2023-11-21T01:12:50;6.50;84.30
11597;DHT22;5854;48.072;16.286;2023-11-21T01:15:17;6.60;83.80
11597;DHT22;5854;48.072;16.286;2023-11-21T01:17:45;6.70;82.40
11597;DHT22;5854;48.072;16.286;2023-11-21T01:20:12;6.90;81.40
11597;DHT22;5854;48.072;16.286;2023-11-21T01:22:39;6.90;80.40
11597;DHT22;5854;48.072;16.286;2023-11-21T01:25:08;6.90;79.50
11597;DHT22;5854;48.072;16.286;2023-11-21T01:27:36;7.00;78.80
11597;DHT22;5854;48.072;16.286;2023-11-21T01:30:04;7.00;78.50
11597;DHT22;5854;48.072;16.286;2023-11-21T01:32:33;7.10;78.50
11597;DHT22;5854;48.072;16.286;2023-11-21T01:35:00;7.10;78.10
11597;DHT22;5854;48.072;16.286;2023-11-21T01:37:27;7.20;77.40
11597;DHT22;5854;48.072;16.286;2023-11-21T01:39:56;7.20;76.70
11597;DHT22;5854;48.072;16.286;2023-11-21T01:42:24;7.30;76.00
11597;DHT22;5854;48.072;16.286;2023-11-21T01:44:52;7.40;75.70
11597;DHT22;5854;48.072;16.286;2023-11-21T01:47:20;7.40;75.20
11597;DHT22;5854;48.072;16.286;2023-11-21T01:49:47;7.50;74.20
11597;DHT22;5854;48.072;16.286;2023-11-21T01:52:15;7.50;74.50
11597;DHT22;5854;48.072;16.286;2023-11-21T01:54:42;7.50;74.20
11597;DHT22;5854;48.072;16.286;2023-11-21T01:57:09;7.50;74.40
11597;DHT22;5854;48.072;16.286;2023-11-21T01:59:38;7.70;73.10
11597;DHT22;5854;48.072;16.286;2023-11-21T02:02:08;7.70;73.30
11597;DHT22;5854;48.072;16.286;2023-11-21T02:04:36;7.70;71.30
11597;DHT22;5854;48.072;16.286;2023-11-21T02:07:04;7.80;71.40
11597;DHT22;5854;48.072;16.286;2023-11-21T02:09:31;7.80;71.30
11597;DHT22;5854;48.072;16.286;2023-11-21T02:11:59;7.90;70.50
11597;DHT22;5854;48.072;16.286;2023-11-21T02:14:27;7.80;70.40
11597;DHT22;5854;48.072;16.286;2023-11-21T02:16:57;7.90;70.90
11597;DHT22;5854;48.072;16.286;2023-11-21T02:19:26;7.80;71.00
11597;DHT22;5854;48.072;16.286;2023-11-21T02:21:57;7.80;71.10
11597;DHT22;5854;48.072;16.286;2023-11-21T02:24:27;7.70;71.60
11597;DHT22;5854;48.072;16.286;2023-11-21T02:26:54;7.70;72.30
11597;DHT22;5854;48.072;16.286;2023-11-21T02:29:22;7.60;72.10
11597;DHT22;5854;48.072;16.286;2023-11-21T02:31:53;7.40;73.20
11597;DHT22;5854;48.072;16.286;2023-11-21T02:34:22;7.40;74.80
11597;DHT22;5854;48.072;16.286;2023-11-21T02:36:50;7.30;74.30
11597;DHT22;5854;48.072;16.286;2023-11-21T02:39:17;7.20;75.10
11597;DHT22;5854;48.072;16.286;2023-11-21T02:41:49;7.30;74.70
11597;DHT22;5854;48.072;16.286;2023-11-21T02:44:16;7.20;75.20
11597;DHT22;5854;48.072;16.286;2023-11-21T02:46:44;7.10;75.60
11597;DHT22;5854;48.072;16.286;2023-11-21T02:49:12;7.00;76.20
11597;DHT22;5854;48.072;16.286;2023-11-21T02:51:39;7.00;77.00
11597;DHT22;5854;48.072;16.286;2023-11-21T02:54:06;7.10;76.40
11597;DHT22;5854;48.072;16.286;2023-11-21T02:56:34;7.40;73.70
11597;DHT22;5854;48.072;16.286;2023-11-21T02:59:03;7.60;71.10
11597;DHT22;5854;48.072;16.286;2023-11-21T03:01:30;7.70;69.70
11597;DHT22;5854;48.072;16.286;2023-11-21T03:03:57;7.80;69.00
11597;DHT22;5854;48.072;16.286;2023-11-21T03:06:25;7.90;68.40
11597;DHT22;5854;48.072;16.286;2023-11-21T03:08:52;7.90;67.70
11597;DHT22;5854;48.072;16.286;2023-11-21T03:11:19;7.70;69.30
11597;DHT22;5854;48.072;16.286;2023-11-21T03:13:46;7.70;68.20
11597;DHT22;5854;48.072;16.286;2023-11-21T03:16:16;7.80;69.10
11597;DHT22;5854;48.072;16.286;2023-11-21T03:18:45;7.70;69.40
11597;DHT22;5854;48.072;16.286;2023-11-21T03:21:12;7.80;69.40
11597;DHT22;5854;48.072;16.286;2023-11-21T03:23:39;7.80;67.60
11597;DHT22;5854;48.072;16.286;2023-11-21T03:26:06;7.70;68.50
11597;DHT22;5854;48.072;16.286;2023-11-21T03:28:38;7.80;68.20
11597;DHT22;5854;48.072;16.286;2023-11-21T03:31:05;7.80;68.00
11597;DHT22;5854;48.072;16.286;2023-11-21T03:33:35;7.80;66.80
11597;DHT22;5854;48.072;16.286;2023-11-21T03:36:03;7.90;66.20
11597;DHT22;5854;48.072;16.286;2023-11-21T03:38:31;8.00;66.90
11597;DHT22;5854;48.072;16.286;2023-11-21T03:40:58;8.00;66.00
11597;DHT22;5854;48.072;16.286;2023-11-21T03:43:25;7.80;67.20
11597;DHT22;5854;48.072;16.286;2023-11-21T03:45:52;7.60;68.00
11597;DHT22;5854;48.072;16.286;2023-11-21T03:48:19;7.50;69.10
11597;DHT22;5854;48.072;16.286;2023-11-21T03:50:48;7.20;70.40
11597;DHT22;5854;48.072;16.286;2023-11-21T03:53:15;7.10;71.90
11597;DHT22;5854;48.072;16.286;2023-11-21T03:55:42;7.00;72.00
11597;DHT22;5854;48.072;16.286;2023-11-21T03:58:09;7.00;73.80
11597;DHT22;5854;48.072;16.286;2023-11-21T04:00:36;6.80;73.50
11597;DHT22;5854;48.072;16.286;2023-11-21T04:03:03;6.70;75.50
11597;DHT22;5854;48.072;16.286;2023-11-21T04:05:30;6.70;75.30
11597;DHT22;5854;48.072;16.286;2023-11-21T04:07:59;6.70;76.30
11597;DHT22;5854;48.072;16.286;2023-11-21T04:10:26;6.50;76.90
11597;DHT22;5854;48.072;16.286;2023-11-21T04:12:54;6.30;78.00
11597;DHT22;5854;48.072;16.286;2023-11-21T04:15:21;6.40;78.70
11597;DHT22;5854;48.072;16.286;2023-11-21T04:17:49;6.50;78.60
11597;DHT22;5854;48.072;16.286;2023-11-21T04:20:16;6.70;78.40
11597;DHT22;5854;48.072;16.286;2023-11-21T04:22:44;6.90;76.30
11597;DHT22;5854;48.072;16.286;2023-11-21T04:25:14;7.10;74.40
11597;DHT22;5854;48.072;16.286;2023-11-21T04:27:42;7.10;74.20
11597;DHT22;5854;48.072;16.286;2023-11-21T04:30:11;6.90;74.20
11597;DHT22;5854;48.072;16.286;2023-11-21T04:32:39;6.80;74.50
11597;DHT22;5854;48.072;16.286;2023-11-21T04:35:08;6.70;75.00
11597;DHT22;5854;48.072;16.286;2023-11-21T04:37:35;6.80;75.20
11597;DHT22;5854;48.072;16.286;2023-11-21T04:40:02;6.80;74.80
11597;DHT22;5854;48.072;16.286;2023-11-21T04:42:34;7.00;73.90
11597;DHT22;5854;48.072;16.286;2023-11-21T04:45:02;7.00;73.70
11597;DHT22;5854;48.072;16.286;2023-11-21T04:47:33;7.00;74.20
11597;DHT22;5854;48.072;16.286;2023-11-21T04:50:00;6.80;74.30
11597;DHT22;5854;48.072;16.286;2023-11-21T04:52:28;6.80;75.20
11597;DHT22;5854;48.072;16.286;2023-11-21T04:54:55;6.80;75.50
11597;DHT22;5854;48.072;16.286;2023-11-21T04:57:24;6.80;75.10
11597;DHT22;5854;48.072;16.286;2023-11-21T04:59:52;6.80;75.60
11597;DHT22;5854;48.072;16.286;2023-11-21T05:02:19;6.80;75.30
11597;DHT22;5854;48.072;16.286;2023-11-21T05:04:47;6.70;76.10
11597;DHT22;5854;48.072;16.286;2023-11-21T05:07:14;6.60;76.60
11597;DHT22;5854;48.072;16.286;2023-11-21T05:09:42;6.80;76.00
11597;DHT22;5854;48.072;16.286;2023-11-21T05:12:11;7.00;74.80
11597;DHT22;5854;48.072;16.286;2023-11-21T05:14:40;7.10;74.50
11597;DHT22;5854;48.072;16.286;2023-11-21T05:17:08;7.20;72.90
11597;DHT22;5854;48.072;16.286;2023-11-21T05:19:35;7.30;72.50
11597;DHT22;5854;48.072;16.286;2023-11-21T05:22:03;7.40;71.80
11597;DHT22;5854;48.072;16.286;2023-11-21T05:24:31;7.50;70.60
11597;DHT22;5854;48.072;16.286;2023-11-21T05:26:58;7.60;70.20
11597;DHT22;5854;48.072;16.286;2023-11-21T05:29:25;7.60;70.20
11597;DHT22;5854;48.072;16.286;2023-11-21T05:31:52;7.60;70.30
11597;DHT22;5854;48.072;16.286;2023-11-21T05:34:21;7.40;72.00
11597;DHT22;5854;48.072;16.286;2023-11-21T05:36:49;7.30;72.60
11597;DHT22;5854;48.072;16.286;2023-11-21T05:39:17;7.40;72.20
11597;DHT22;5854;48.072;16.286;2023-11-21T05:41:45;7.40;72.80
11597;DHT22;5854;48.072;16.286;2023-11-21T05:44:12;7.30;72.70
11597;DHT22;5854;48.072;16.286;2023-11-21T05:46:40;7.20;73.30
11597;DHT22;5854;48.072;16.286;2023-11-21T05:49:08;7.20;73.40
11597;DHT22;5854;48.072;16.286;2023-11-21T05:51:37;7.00;74.10
11597;DHT22;5854;48.072;16.286;2023-11-21T05:54:04;7.00;75.10
11597;DHT22;5854;48.072;16.286;2023-11-21T05:56:32;7.00;75.00
11597;DHT22;5854;48.072;16.286;2023-11-21T05:58:59;7.00;74.50
11597;DHT22;5854;48.072;16.286;2023-11-21T06:01:26;7.10;74.40
11597;DHT22;5854;48.072;16.286;2023-11-21T06:03:54;7.10;75.00
11597;DHT22;5854;48.072;16.286;2023-11-21T06:06:21;6.90;75.50
11597;DHT22;5854;48.072;16.286;2023-11-21T06:08:51;6.90;76.00
11597;DHT22;5854;48.072;16.286;2023-11-21T06:11:18;6.80;76.40
11597;DHT22;5854;48.072;16.286;2023-11-21T06:13:46;6.80;77.20
11597;DHT22;5854;48.072;16.286;2023-11-21T06:16:13;6.70;77.30
11597;DHT22;5854;48.072;16.286;2023-11-21T06:18:42;6.60;78.10
11597;DHT22;5854;48.072;16.286;2023-11-21T06:21:10;6.50;79.00
11597;DHT22;5854;48.072;16.286;2023-11-21T06:23:37;6.40;79.30
11597;DHT22;5854;48.072;16.286;2023-11-21T06:26:06;6.50;79.70
11597;DHT22;5854;48.072;16.286;2023-11-21T06:28:34;6.40;79.80
11597;DHT22;5854;48.072;16.286;2023-11-21T06:31:02;6.20;81.60
11597;DHT22;5854;48.072;16.286;2023-11-21T06:33:31;6.20;84.10
11597;DHT22;5854;48.072;16.286;2023-11-21T06:35:58;6.40;85.10
11597;DHT22;5854;48.072;16.286;2023-11-21T06:38:28;6.50;83.40
11597;DHT22;5854;48.072;16.286;2023-11-21T06:40:58;6.50;81.90
11597;DHT22;5854;48.072;16.286;2023-11-21T06:43:29;6.40;81.40
11597;DHT22;5854;48.072;16.286;2023-11-21T06:45:56;6.50;91.90
11597;DHT22;5854;48.072;16.286;2023-11-21T06:48:24;6.50;81.80
11597;DHT22;5854;48.072;16.286;2023-11-21T06:50:51;6.50;81.70
11597;DHT22;5854;48.072;16.286;2023-11-21T06:53:18;6.40;82.10
11597;DHT22;5854;48.072;16.286;2023-11-21T06:55:45;6.30;82.30
11597;DHT22;5854;48.072;16.286;2023-11-21T06:58:12;6.40;82.20
11597;DHT22;5854;48.072;16.286;2023-11-21T07:00:41;6.50;81.50
11597;DHT22;5854;48.072;16.286;2023-11-21T07:03:12;6.70;80.30
11597;DHT22;5854;48.072;16.286;2023-11-21T07:05:39;6.70;79.10
11597;DHT22;5854;48.072;16.286;2023-11-21T07:08:06;6.80;78.50
11597;DHT22;5854;48.072;16.286;2023-11-21T07:10:33;6.90;78.40
11597;DHT22;5854;48.072;16.286;2023-11-21T07:13:02;6.90;77.90
11597;DHT22;5854;48.072;16.286;2023-11-21T07:15:29;7.00;77.20
11597;DHT22;5854;48.072;16.286;2023-11-21T07:17:58;7.10;76.90
11597;DHT22;5854;48.072;16.286;2023-11-21T07:20:25;7.10;77.30
11597;DHT22;5854;48.072;16.286;2023-11-21T07:22:52;7.10;76.30
11597;DHT22;5854;48.072;16.286;2023-11-21T07:25:20;7.20;75.80
11597;DHT22;5854;48.072;16.286;2023-11-21T07:27:47;7.20;74.90
11597;DHT22;5854;48.072;16.286;2023-11-21T07:30:15;7.30;73.90
11597;DHT22;5854;48.072;16.286;2023-11-21T07:32:43;7.40;73.40
11597;DHT22;5854;48.072;16.286;2023-11-21T07:35:12;7.50;72.50
11597;DHT22;5854;48.072;16.286;2023-11-21T07:37:39;7.50;72.70
11597;DHT22;5854;48.072;16.286;2023-11-21T07:40:07;7.60;73.30
11597;DHT22;5854;48.072;16.286;2023-11-21T07:42:37;7.50;72.80
11597;DHT22;5854;48.072;16.286;2023-11-21T07:45:05;7.60;72.50
11597;DHT22;5854;48.072;16.286;2023-11-21T07:47:33;7.60;71.30
11597;DHT22;5854;48.072;16.286;2023-11-21T07:52:31;7.80;71.20
11597;DHT22;5854;48.072;16.286;2023-11-21T07:54:58;7.80;69.90
11597;DHT22;5854;48.072;16.286;2023-11-21T07:57:25;7.80;70.30
11597;DHT22;5854;48.072;16.286;2023-11-21T07:59:52;7.80;70.00
11597;DHT22;5854;48.072;16.286;2023-11-21T08:02:19;7.80;70.90
11597;DHT22;5854;48.072;16.286;2023-11-21T08:04:46;7.90;69.70
11597;DHT22;5854;48.072;16.286;2023-11-21T08:07:15;7.90;70.10
11597;DHT22;5854;48.072;16.286;2023-11-21T08:09:43;8.00;68.90
11597;DHT22;5854;48.072;16.286;2023-11-21T08:12:12;8.00;68.70
11597;DHT22;5854;48.072;16.286;2023-11-21T08:14:40;8.10;70.00
11597;DHT22;5854;48.072;16.286;2023-11-21T08:17:08;8.30;68.00
11597;DHT22;5854;48.072;16.286;2023-11-21T08:19:36;8.50;70.20
11597;DHT22;5854;48.072;16.286;2023-11-21T08:22:03;8.70;66.40
11597;DHT22;5854;48.072;16.286;2023-11-21T08:24:33;9.00;65.30
11597;DHT22;5854;48.072;16.286;2023-11-21T08:27:02;9.10;65.50
11597;DHT22;5854;48.072;16.286;2023-11-21T08:29:30;9.10;64.40
11597;DHT22;5854;48.072;16.286;2023-11-21T08:31:57;9.30;66.30
11597;DHT22;5854;48.072;16.286;2023-11-21T08:34:25;9.40;65.30
11597;DHT22;5854;48.072;16.286;2023-11-21T08:36:53;9.40;63.10
11597;DHT22;5854;48.072;16.286;2023-11-21T08:39:22;9.40;62.60
11597;DHT22;5854;48.072;16.286;2023-11-21T08:41:50;9.50;63.40
11597;DHT22;5854;48.072;16.286;2023-11-21T08:44:19;9.60;61.70
11597;DHT22;5854;48.072;16.286;2023-11-21T08:46:47;9.60;62.20
11597;DHT22;5854;48.072;16.286;2023-11-21T08:49:14;9.80;62.50
11597;DHT22;5854;48.072;16.286;2023-11-21T08:51:44;9.80;62.70
11597;DHT22;5854;48.072;16.286;2023-11-21T08:54:11;9.80;61.80
11597;DHT22;5854;48.072;16.286;2023-11-21T08:56:38;9.70;61.20
11597;DHT22;5854;48.072;16.286;2023-11-21T08:59:06;9.70;61.20
11597;DHT22;5854;48.072;16.286;2023-11-21T09:01:34;9.60;61.40
11597;DHT22;5854;48.072;16.286;2023-11-21T09:04:01;9.50;61.50
11597;DHT22;5854;48.072;16.286;2023-11-21T09:06:29;9.60;61.10
11597;DHT22;5854;48.072;16.286;2023-11-21T09:08:56;9.60;62.60
11597;DHT22;5854;48.072;16.286;2023-11-21T09:11:23;9.80;62.70
11597;DHT22;5854;48.072;16.286;2023-11-21T09:13:52;10.00;60.70
11597;DHT22;5854;48.072;16.286;2023-11-21T09:16:20;10.00;62.10
11597;DHT22;5854;48.072;16.286;2023-11-21T09:18:48;10.10;62.70
11597;DHT22;5854;48.072;16.286;2023-11-21T09:21:15;10.10;60.70
11597;DHT22;5854;48.072;16.286;2023-11-21T09:23:43;10.10;59.70
11597;DHT22;5854;48.072;16.286;2023-11-21T09:26:11;10.20;60.60
11597;DHT22;5854;48.072;16.286;2023-11-21T09:28:39;10.30;58.50
11597;DHT22;5854;48.072;16.286;2023-11-21T09:31:08;10.40;58.00
11597;DHT22;5854;48.072;16.286;2023-11-21T09:33:35;10.50;57.50
11597;DHT22;5854;48.072;16.286;2023-11-21T09:36:06;10.40;59.70
11597;DHT22;5854;48.072;16.286;2023-11-21T09:38:39;10.50;60.10
11597;DHT22;5854;48.072;16.286;2023-11-21T09:41:14;10.40;59.40
11597;DHT22;5854;48.072;16.286;2023-11-21T09:43:46;10.40;59.50
11597;DHT22;5854;48.072;16.286;2023-11-21T09:46:15;10.00;59.20
11597;DHT22;5854;48.072;16.286;2023-11-21T09:48:49;9.80;60.40
11597;DHT22;5854;48.072;16.286;2023-11-21T09:51:20;9.70;61.50
11597;DHT22;5854;48.072;16.286;2023-11-21T09:53:50;9.80;62.00
11597;DHT22;5854;48.072;16.286;2023-11-21T09:56:19;9.80;61.30
11597;DHT22;5854;48.072;16.286;2023-11-21T09:58:51;9.70;62.20
11597;DHT22;5854;48.072;16.286;2023-11-21T10:01:20;9.60;61.40
11597;DHT22;5854;48.072;16.286;2023-11-21T10:03:48;9.60;61.20
11597;DHT22;5854;48.072;16.286;2023-11-21T10:06:16;9.60;62.60
11597;DHT22;5854;48.072;16.286;2023-11-21T10:08:46;9.60;61.40
11597;DHT22;5854;48.072;16.286;2023-11-21T10:11:17;9.60;63.50
11597;DHT22;5854;48.072;16.286;2023-11-21T10:13:48;9.70;63.90
11597;DHT22;5854;48.072;16.286;2023-11-21T10:16:19;9.80;66.30
11597;DHT22;5854;48.072;16.286;2023-11-21T10:18:49;9.80;63.40
11597;DHT22;5854;48.072;16.286;2023-11-21T10:21:21;9.80;61.90
11597;DHT22;5854;48.072;16.286;2023-11-21T10:23:50;9.70;62.20
11597;DHT22;5854;48.072;16.286;2023-11-21T10:26:19;9.60;65.50
11597;DHT22;5854;48.072;16.286;2023-11-21T10:28:55;9.70;66.60
11597;DHT22;5854;48.072;16.286;2023-11-21T10:31:23;9.70;64.40
11597;DHT22;5854;48.072;16.286;2023-11-21T10:33:52;9.70;64.20
11597;DHT22;5854;48.072;16.286;2023-11-21T10:36:27;9.60;63.90
11597;DHT22;5854;48.072;16.286;2023-11-21T10:38:55;9.50;64.30
11597;DHT22;5854;48.072;16.286;2023-11-21T10:41:22;9.50;66.80
11597;DHT22;5854;48.072;16.286;2023-11-21T10:43:53;9.50;66.20
11597;DHT22;5854;48.072;16.286;2023-11-21T10:46:22;9.50;66.60
11597;DHT22;5854;48.072;16.286;2023-11-21T10:48:52;9.60;69.20
11597;DHT22;5854;48.072;16.286;2023-11-21T10:51:21;9.70;70.50
11597;DHT22;5854;48.072;16.286;2023-11-21T10:53:51;9.70;70.00
11597;DHT22;5854;48.072;16.286;2023-11-21T10:56:19;10.00;69.90
11597;DHT22;5854;48.072;16.286;2023-11-21T10:58:49;10.10;66.00
11597;DHT22;5854;48.072;16.286;2023-11-21T11:01:18;10.00;68.20
11597;DHT22;5854;48.072;16.286;2023-11-21T11:03:47;10.10;65.20
11597;DHT22;5854;48.072;16.286;2023-11-21T11:06:16;10.40;65.60
11597;DHT22;5854;48.072;16.286;2023-11-21T11:08:44;10.30;64.80
11597;DHT22;5854;48.072;16.286;2023-11-21T11:11:12;10.30;61.40
11597;DHT22;5854;48.072;16.286;2023-11-21T11:13:43;10.30;63.00
11597;DHT22;5854;48.072;16.286;2023-11-21T11:16:12;10.20;62.00
11597;DHT22;5854;48.072;16.286;2023-11-21T11:18:42;10.20;62.10
11597;DHT22;5854;48.072;16.286;2023-11-21T11:21:20;10.20;63.30
11597;DHT22;5854;48.072;16.286;2023-11-21T11:24:13;10.10;62.40
11597;DHT22;5854;48.072;16.286;2023-11-21T11:26:51;10.20;62.20
11597;DHT22;5854;48.072;16.286;2023-11-21T11:29:30;10.00;62.70
11597;DHT22;5854;48.072;16.286;2023-11-21T11:32:08;10.10;62.50
11597;DHT22;5854;48.072;16.286;2023-11-21T11:34:47;10.30;62.10
11597;DHT22;5854;48.072;16.286;2023-11-21T11:37:20;10.30;61.20
11597;DHT22;5854;48.072;16.286;2023-11-21T11:39:49;10.40;61.40
11597;DHT22;5854;48.072;16.286;2023-11-21T11:42:18;10.50;60.90
11597;DHT22;5854;48.072;16.286;2023-11-21T11:44:50;10.50;60.00
11597;DHT22;5854;48.072;16.286;2023-11-21T11:47:24;10.60;60.30
11597;DHT22;5854;48.072;16.286;2023-11-21T11:50:04;10.50;60.80
11597;DHT22;5854;48.072;16.286;2023-11-21T11:52:38;10.60;60.20
11597;DHT22;5854;48.072;16.286;2023-11-21T11:55:08;10.60;60.20
11597;DHT22;5854;48.072;16.286;2023-11-21T11:57:38;10.50;60.30
11597;DHT22;5854;48.072;16.286;2023-11-21T12:00:11;10.30;60.40
11597;DHT22;5854;48.072;16.286;2023-11-21T12:02:51;10.40;60.50
11597;DHT22;5854;48.072;16.286;2023-11-21T12:05:20;10.30;61.70
11597;DHT22;5854;48.072;16.286;2023-11-21T12:07:50;10.30;62.10
11597;DHT22;5854;48.072;16.286;2023-11-21T12:10:21;10.30;61.10
11597;DHT22;5854;48.072;16.286;2023-11-21T12:12:53;10.30;61.30
11597;DHT22;5854;48.072;16.286;2023-11-21T12:15:22;10.30;61.30
11597;DHT22;5854;48.072;16.286;2023-11-21T12:17:50;10.20;61.00
11597;DHT22;5854;48.072;16.286;2023-11-21T12:20:20;10.20;61.10
11597;DHT22;5854;48.072;16.286;2023-11-21T12:22:49;10.20;60.80
11597;DHT22;5854;48.072;16.286;2023-11-21T12:25:17;10.20;61.10
11597;DHT22;5854;48.072;16.286;2023-11-21T12:27:46;10.10;61.10
11597;DHT22;5854;48.072;16.286;2023-11-21T12:30:17;10.20;60.80
11597;DHT22;5854;48.072;16.286;2023-11-21T12:32:49;10.20;61.00
11597;DHT22;5854;48.072;16.286;2023-11-21T12:49:52;9.90;63.40
11597;DHT22;5854;48.072;16.286;2023-11-21T12:52:19;10.00;63.20
11597;DHT22;5854;48.072;16.286;2023-11-21T12:54:46;10.00;64.90
11597;DHT22;5854;48.072;16.286;2023-11-21T12:57:14;10.00;64.60
11597;DHT22;5854;48.072;16.286;2023-11-21T12:59:42;10.00;63.20
11597;DHT22;5854;48.072;16.286;2023-11-21T13:02:13;9.90;63.40
11597;DHT22;5854;48.072;16.286;2023-11-21T13:04:43;9.90;65.10
11597;DHT22;5854;48.072;16.286;2023-11-21T13:07:11;9.90;64.60
11597;DHT22;5854;48.072;16.286;2023-11-21T13:09:40;9.90;64.20
11597;DHT22;5854;48.072;16.286;2023-11-21T13:12:08;9.90;65.00
11597;DHT22;5854;48.072;16.286;2023-11-21T13:14:36;9.90;64.00
11597;DHT22;5854;48.072;16.286;2023-11-21T13:17:03;9.80;65.30
11597;DHT22;5854;48.072;16.286;2023-11-21T13:19:30;9.80;65.30
11597;DHT22;5854;48.072;16.286;2023-11-21T13:21:57;9.90;64.40
11597;DHT22;5854;48.072;16.286;2023-11-21T13:24:28;9.80;64.50
11597;DHT22;5854;48.072;16.286;2023-11-21T13:26:56;9.80;64.90
11597;DHT22;5854;48.072;16.286;2023-11-21T13:29:24;9.90;68.00
11597;DHT22;5854;48.072;16.286;2023-11-21T13:31:52;10.00;70.20
11597;DHT22;5854;48.072;16.286;2023-11-21T13:34:19;10.10;64.10
11597;DHT22;5854;48.072;16.286;2023-11-21T13:36:48;10.00;64.70
11597;DHT22;5854;48.072;16.286;2023-11-21T13:39:19;9.90;65.20
11597;DHT22;5854;48.072;16.286;2023-11-21T13:41:48;10.00;64.50
11597;DHT22;5854;48.072;16.286;2023-11-21T13:44:20;10.00;64.90
11597;DHT22;5854;48.072;16.286;2023-11-21T13:46:55;10.10;65.00
11597;DHT22;5854;48.072;16.286;2023-11-21T13:49:23;10.10;64.00
11597;DHT22;5854;48.072;16.286;2023-11-21T13:51:52;10.00;64.30
11597;DHT22;5854;48.072;16.286;2023-11-21T13:54:20;9.90;65.70
11597;DHT22;5854;48.072;16.286;2023-11-21T13:56:51;10.00;65.30
11597;DHT22;5854;48.072;16.286;2023-11-21T13:59:18;10.00;65.90
11597;DHT22;5854;48.072;16.286;2023-11-21T14:01:48;9.90;64.60
11597;DHT22;5854;48.072;16.286;2023-11-21T14:04:23;9.80;64.80
11597;DHT22;5854;48.072;16.286;2023-11-21T14:07:16;9.80;65.90
11597;DHT22;5854;48.072;16.286;2023-11-21T14:09:57;9.80;66.20
11597;DHT22;5854;48.072;16.286;2023-11-21T14:12:26;9.80;65.50
11597;DHT22;5854;48.072;16.286;2023-11-21T14:14:54;9.80;65.50
11597;DHT22;5854;48.072;16.286;2023-11-21T14:17:21;9.80;65.90
11597;DHT22;5854;48.072;16.286;2023-11-21T14:19:49;9.70;65.60
11597;DHT22;5854;48.072;16.286;2023-11-21T14:22:17;9.70;65.90
11597;DHT22;5854;48.072;16.286;2023-11-21T14:24:44;9.60;66.00
11597;DHT22;5854;48.072;16.286;2023-11-21T14:27:12;9.50;66.30
11597;DHT22;5854;48.072;16.286;2023-11-21T14:29:41;9.60;66.40
11597;DHT22;5854;48.072;16.286;2023-11-21T14:32:10;9.50;66.70
11597;DHT22;5854;48.072;16.286;2023-11-21T14:34:37;9.40;69.60
11597;DHT22;5854;48.072;16.286;2023-11-21T14:37:06;9.50;67.10
11597;DHT22;5854;48.072;16.286;2023-11-21T14:39:33;9.50;68.70
11597;DHT22;5854;48.072;16.286;2023-11-21T14:42:06;9.50;67.70
11597;DHT22;5854;48.072;16.286;2023-11-21T14:44:33;9.50;68.00
11597;DHT22;5854;48.072;16.286;2023-11-21T14:47:05;9.40;67.60
11597;DHT22;5854;48.072;16.286;2023-11-21T14:49:38;9.40;67.90
11597;DHT22;5854;48.072;16.286;2023-11-21T14:52:18;9.40;68.50
11597;DHT22;5854;48.072;16.286;2023-11-21T14:54:58;9.40;68.30
11597;DHT22;5854;48.072;16.286;2023-11-21T14:57:45;9.30;68.80
11597;DHT22;5854;48.072;16.286;2023-11-21T15:00:16;9.30;69.70
11597;DHT22;5854;48.072;16.286;2023-11-21T15:03:05;9.20;71.30
11597;DHT22;5854;48.072;16.286;2023-11-21T15:05:32;9.10;71.00
11597;DHT22;5854;48.072;16.286;2023-11-21T15:08:01;9.10;70.80
11597;DHT22;5854;48.072;16.286;2023-11-21T15:10:44;9.10;70.50
11597;DHT22;5854;48.072;16.286;2023-11-21T15:13:12;9.10;70.80
11597;DHT22;5854;48.072;16.286;2023-11-21T15:15:40;9.10;70.70
11597;DHT22;5854;48.072;16.286;2023-11-21T15:18:10;9.10;72.20
11597;DHT22;5854;48.072;16.286;2023-11-21T15:20:39;9.20;72.50
11597;DHT22;5854;48.072;16.286;2023-11-21T15:23:06;9.10;70.80
11597;DHT22;5854;48.072;16.286;2023-11-21T15:25:34;9.00;71.00
11597;DHT22;5854;48.072;16.286;2023-11-21T15:28:01;8.90;71.30
11597;DHT22;5854;48.072;16.286;2023-11-21T15:30:30;8.80;71.60
11597;DHT22;5854;48.072;16.286;2023-11-21T15:32:58;8.70;72.50
11597;DHT22;5854;48.072;16.286;2023-11-21T15:35:27;8.70;75.00
11597;DHT22;5854;48.072;16.286;2023-11-21T15:37:54;8.70;73.30
11597;DHT22;5854;48.072;16.286;2023-11-21T15:40:23;8.60;72.80
11597;DHT22;5854;48.072;16.286;2023-11-21T15:42:50;8.70;73.10
11597;DHT22;5854;48.072;16.286;2023-11-21T15:45:17;8.60;73.10
11597;DHT22;5854;48.072;16.286;2023-11-21T15:47:48;8.60;73.20
11597;DHT22;5854;48.072;16.286;2023-11-21T15:50:15;8.60;73.20
11597;DHT22;5854;48.072;16.286;2023-11-21T15:52:44;8.60;73.40
11597;DHT22;5854;48.072;16.286;2023-11-21T15:55:11;8.50;73.80
11597;DHT22;5854;48.072;16.286;2023-11-21T15:57:38;8.50;73.90
11597;DHT22;5854;48.072;16.286;2023-11-21T16:00:06;8.40;74.20
11597;DHT22;5854;48.072;16.286;2023-11-21T16:02:42;8.40;74.60
11597;DHT22;5854;48.072;16.286;2023-11-21T16:05:10;8.30;75.40
11597;DHT22;5854;48.072;16.286;2023-11-21T16:07:39;8.30;75.50
11597;DHT22;5854;48.072;16.286;2023-11-21T16:10:09;8.30;75.20